sensor_id;sensor_type;location;lat;lon;timestamp;temperature;humidity
13205;DHT22;6667;52.634;9.226;2024-02-26T00:01:00;2.00;99.90
13205;DHT22;6667;52.634;9.226;2024-02-26T00:03:27;1.90;99.90
13205;DHT22;6667;52.634;9.226;2024-02-26T00:05:54;1.90;99.90
13205;DHT22;6667;52.634;9.226;2024-02-26T00:08:21;1.90;99.90
13205;DHT22;6667;52.634;9.226;2024-02-26T00:10:48;1.80;99.90
13205;DHT22;6667;52.634;9.226;2024-02-26T00:13:14;1.80;99.90
13205;DHT22;6667;52.634;9.226;2024-02-26T00:15:42;1.80;99.90
13205;DHT22;6667;52.634;9.226;2024-02-26T00:18:09;1.80;99.90
13205;DHT22;6667;52.634;9.226;2024-02-26T00:20:35;1.80;99.90
13205;DHT22;6667;52.634;9.226;2024-02-26T00:23:02;1.70;99.90
13205;DHT22;6667;52.634;9.226;2024-02-26T00:25:29;1.70;99.90
13205;DHT22;6667;52.634;9.226;2024-02-26T00:27:55;1.70;99.90
13205;DHT22;6667;52.634;9.226;2024-02-26T00:30:23;1.60;99.90
13205;DHT22;6667;52.634;9.226;2024-02-26T00:32:51;1.60;99.90
13205;DHT22;6667;52.634;9.226;2024-02-26T00:35:18;1.60;99.90
13205;DHT22;6667;52.634;9.226;2024-02-26T00:37:45;1.50;99.90
13205;DHT22;6667;52.634;9.226;2024-02-26T00:40:12;1.40;99.90
13205;DHT22;6667;52.634;9.226;2024-02-26T00:42:39;1.40;99.90
13205;DHT22;6667;52.634;9.226;2024-02-26T00:45:10;1.40;99.90
13205;DHT22;6667;52.634;9.226;2024-02-26T00:47:37;1.40;99.90
13205;DHT22;6667;52.634;9.226;2024-02-26T00:50:08;1.40;99.90
13205;DHT22;6667;52.634;9.226;2024-02-26T00:52:35;1.40;99.90
13205;DHT22;6667;52.634;9.226;2024-02-26T00:55:02;1.40;99.90
13205;DHT22;6667;52.634;9.226;2024-02-26T00:57:29;1.40;99.90
13205;DHT22;6667;52.634;9.226;2024-02-26T00:59:56;1.40;99.90
13205;DHT22;6667;52.634;9.226;2024-02-26T01:02:22;1.40;99.90
13205;DHT22;6667;52.634;9.226;2024-02-26T01:04:49;1.40;99.90
13205;DHT22;6667;52.634;9.226;2024-02-26T01:07:17;1.40;99.90
13205;DHT22;6667;52.634;9.226;2024-02-26T01:09:43;1.30;99.90
13205;DHT22;6667;52.634;9.226;2024-02-26T01:12:10;1.40;99.90
13205;DHT22;6667;52.634;9.226;2024-02-26T01:14:37;1.30;99.90
13205;DHT22;6667;52.634;9.226;2024-02-26T01:17:03;1.30;99.90
13205;DHT22;6667;52.634;9.226;2024-02-26T01:19:30;1.30;99.90
13205;DHT22;6667;52.634;9.226;2024-02-26T01:21:56;1.30;99.90
13205;DHT22;6667;52.634;9.226;2024-02-26T01:24:24;1.20;99.90
13205;DHT22;6667;52.634;9.226;2024-02-26T01:26:51;1.20;99.90
13205;DHT22;6667;52.634;9.226;2024-02-26T01:29:17;1.20;99.90
13205;DHT22;6667;52.634;9.226;2024-02-26T01:31:44;1.20;99.90
13205;DHT22;6667;52.634;9.226;2024-02-26T01:34:11;1.20;99.90
13205;DHT22;6667;52.634;9.226;2024-02-26T01:36:37;1.10;99.90
13205;DHT22;6667;52.634;9.226;2024-02-26T01:39:04;1.10;99.90
13205;DHT22;6667;52.634;9.226;2024-02-26T01:41:33;1.20;99.90
13205;DHT22;6667;52.634;9.226;2024-02-26T01:44:00;1.20;99.90
13205;DHT22;6667;52.634;9.226;2024-02-26T01:46:27;1.10;99.90
13205;DHT22;6667;52.634;9.226;2024-02-26T01:48:54;1.10;99.90
13205;DHT22;6667;52.634;9.226;2024-02-26T01:51:21;1.10;99.90
13205;DHT22;6667;52.634;9.226;2024-02-26T01:53:48;1.10;99.90
13205;DHT22;6667;52.634;9.226;2024-02-26T01:56:15;1.10;99.90
13205;DHT22;6667;52.634;9.226;2024-02-26T01:58:45;1.10;99.90
13205;DHT22;6667;52.634;9.226;2024-02-26T02:01:12;1.10;99.90
13205;DHT22;6667;52.634;9.226;2024-02-26T02:03:39;1.00;99.90
13205;DHT22;6667;52.634;9.226;2024-02-26T02:06:07;1.00;99.90
13205;DHT22;6667;52.634;9.226;2024-02-26T02:08:34;1.00;99.90
13205;DHT22;6667;52.634;9.226;2024-02-26T02:11:01;1.00;99.90
13205;DHT22;6667;52.634;9.226;2024-02-26T02:13:28;1.00;99.90
13205;DHT22;6667;52.634;9.226;2024-02-26T02:15:56;0.90;99.90
13205;DHT22;6667;52.634;9.226;2024-02-26T02:18:23;0.90;99.90
13205;DHT22;6667;52.634;9.226;2024-02-26T02:20:51;0.90;99.90
13205;DHT22;6667;52.634;9.226;2024-02-26T02:23:17;1.00;99.90
13205;DHT22;6667;52.634;9.226;2024-02-26T02:25:44;0.90;99.90
13205;DHT22;6667;52.634;9.226;2024-02-26T02:28:11;0.90;99.90
13205;DHT22;6667;52.634;9.226;2024-02-26T02:30:38;0.90;99.90
13205;DHT22;6667;52.634;9.226;2024-02-26T02:33:05;0.80;99.90
13205;DHT22;6667;52.634;9.226;2024-02-26T02:35:31;0.80;99.90
13205;DHT22;6667;52.634;9.226;2024-02-26T02:37:59;0.90;99.90
13205;DHT22;6667;52.634;9.226;2024-02-26T02:40:26;0.80;99.90
13205;DHT22;6667;52.634;9.226;2024-02-26T02:42:53;0.80;99.90
13205;DHT22;6667;52.634;9.226;2024-02-26T02:45:19;0.80;99.90
13205;DHT22;6667;52.634;9.226;2024-02-26T02:47:46;0.80;99.90
13205;DHT22;6667;52.634;9.226;2024-02-26T02:50:12;0.80;99.90
13205;DHT22;6667;52.634;9.226;2024-02-26T02:52:39;0.80;99.90
13205;DHT22;6667;52.634;9.226;2024-02-26T02:55:08;0.90;99.90
13205;DHT22;6667;52.634;9.226;2024-02-26T02:57:34;0.80;99.90
13205;DHT22;6667;52.634;9.226;2024-02-26T03:00:07;0.80;99.90
13205;DHT22;6667;52.634;9.226;2024-02-26T03:02:33;0.80;99.90
13205;DHT22;6667;52.634;9.226;2024-02-26T03:05:01;0.80;99.90
13205;DHT22;6667;52.634;9.226;2024-02-26T03:07:28;0.80;99.90
13205;DHT22;6667;52.634;9.226;2024-02-26T03:09:54;0.80;99.90
13205;DHT22;6667;52.634;9.226;2024-02-26T03:12:22;0.80;99.90
13205;DHT22;6667;52.634;9.226;2024-02-26T03:14:49;0.80;99.90
13205;DHT22;6667;52.634;9.226;2024-02-26T03:17:16;0.90;99.90
13205;DHT22;6667;52.634;9.226;2024-02-26T03:19:44;0.90;99.90
13205;DHT22;6667;52.634;9.226;2024-02-26T03:22:12;0.90;99.90
13205;DHT22;6667;52.634;9.226;2024-02-26T03:24:38;0.90;99.90
13205;DHT22;6667;52.634;9.226;2024-02-26T03:27:05;0.90;99.90
13205;DHT22;6667;52.634;9.226;2024-02-26T03:29:36;0.90;99.90
13205;DHT22;6667;52.634;9.226;2024-02-26T03:32:03;1.00;99.90
13205;DHT22;6667;52.634;9.226;2024-02-26T03:34:30;1.00;99.90
13205;DHT22;6667;52.634;9.226;2024-02-26T03:36:59;1.00;99.90
13205;DHT22;6667;52.634;9.226;2024-02-26T03:39:26;1.00;99.90
13205;DHT22;6667;52.634;9.226;2024-02-26T03:41:52;1.00;99.90
13205;DHT22;6667;52.634;9.226;2024-02-26T03:44:19;1.00;99.90
13205;DHT22;6667;52.634;9.226;2024-02-26T03:46:47;1.00;99.90
13205;DHT22;6667;52.634;9.226;2024-02-26T03:49:14;1.00;99.90
13205;DHT22;6667;52.634;9.226;2024-02-26T03:51:40;1.00;99.90
13205;DHT22;6667;52.634;9.226;2024-02-26T03:54:07;1.00;99.90
13205;DHT22;6667;52.634;9.226;2024-02-26T03:56:34;1.00;99.90
13205;DHT22;6667;52.634;9.226;2024-02-26T03:59:00;1.00;99.90
13205;DHT22;6667;52.634;9.226;2024-02-26T04:01:27;1.10;99.90
13205;DHT22;6667;52.634;9.226;2024-02-26T04:03:55;1.20;99.90
13205;DHT22;6667;52.634;9.226;2024-02-26T04:06:22;1.30;99.90
13205;DHT22;6667;52.634;9.226;2024-02-26T04:08:49;1.30;99.90
13205;DHT22;6667;52.634;9.226;2024-02-26T04:11:15;1.20;99.90
13205;DHT22;6667;52.634;9.226;2024-02-26T04:13:44;1.20;99.90
13205;DHT22;6667;52.634;9.226;2024-02-26T04:16:14;1.20;99.90
13205;DHT22;6667;52.634;9.226;2024-02-26T04:18:41;1.30;99.90
13205;DHT22;6667;52.634;9.226;2024-02-26T04:21:09;1.30;99.90
13205;DHT22;6667;52.634;9.226;2024-02-26T04:23:36;1.30;99.90
13205;DHT22;6667;52.634;9.226;2024-02-26T04:26:03;1.30;99.90
13205;DHT22;6667;52.634;9.226;2024-02-26T04:28:30;1.20;99.90
13205;DHT22;6667;52.634;9.226;2024-02-26T04:30:56;1.20;99.90
13205;DHT22;6667;52.634;9.226;2024-02-26T04:33:23;1.20;99.90
13205;DHT22;6667;52.634;9.226;2024-02-26T04:35:50;1.30;99.90
13205;DHT22;6667;52.634;9.226;2024-02-26T04:38:18;1.40;99.90
13205;DHT22;6667;52.634;9.226;2024-02-26T04:40:44;1.40;99.90
13205;DHT22;6667;52.634;9.226;2024-02-26T04:43:12;1.40;99.90
13205;DHT22;6667;52.634;9.226;2024-02-26T04:45:39;1.40;99.90
13205;DHT22;6667;52.634;9.226;2024-02-26T04:48:06;1.40;99.90
13205;DHT22;6667;52.634;9.226;2024-02-26T04:50:33;1.40;99.90
13205;DHT22;6667;52.634;9.226;2024-02-26T04:53:00;1.40;99.90
13205;DHT22;6667;52.634;9.226;2024-02-26T04:55:28;1.40;99.90
13205;DHT22;6667;52.634;9.226;2024-02-26T04:57:54;1.50;99.90
13205;DHT22;6667;52.634;9.226;2024-02-26T05:00:21;1.50;99.90
13205;DHT22;6667;52.634;9.226;2024-02-26T05:02:48;1.50;99.90
13205;DHT22;6667;52.634;9.226;2024-02-26T05:05:14;1.50;99.90
13205;DHT22;6667;52.634;9.226;2024-02-26T05:07:41;1.60;99.90
13205;DHT22;6667;52.634;9.226;2024-02-26T05:10:09;1.60;99.90
13205;DHT22;6667;52.634;9.226;2024-02-26T05:12:37;1.60;99.90
13205;DHT22;6667;52.634;9.226;2024-02-26T05:15:05;1.60;99.90
13205;DHT22;6667;52.634;9.226;2024-02-26T05:17:31;1.70;99.90
13205;DHT22;6667;52.634;9.226;2024-02-26T05:19:58;1.60;99.90
13205;DHT22;6667;52.634;9.226;2024-02-26T05:22:24;1.70;99.90
13205;DHT22;6667;52.634;9.226;2024-02-26T05:24:51;1.60;99.90
13205;DHT22;6667;52.634;9.226;2024-02-26T05:27:18;1.60;99.90
13205;DHT22;6667;52.634;9.226;2024-02-26T05:29:46;1.60;99.90
13205;DHT22;6667;52.634;9.226;2024-02-26T05:32:12;1.70;99.90
13205;DHT22;6667;52.634;9.226;2024-02-26T05:34:39;1.70;99.90
13205;DHT22;6667;52.634;9.226;2024-02-26T05:37:06;1.70;99.90
13205;DHT22;6667;52.634;9.226;2024-02-26T05:39:33;1.70;99.90
13205;DHT22;6667;52.634;9.226;2024-02-26T05:42:00;1.80;99.90
13205;DHT22;6667;52.634;9.226;2024-02-26T05:44:27;1.80;99.90
13205;DHT22;6667;52.634;9.226;2024-02-26T05:46:55;1.80;99.90
13205;DHT22;6667;52.634;9.226;2024-02-26T05:49:22;1.80;99.90
13205;DHT22;6667;52.634;9.226;2024-02-26T05:51:48;1.80;99.90
13205;DHT22;6667;52.634;9.226;2024-02-26T05:54:15;1.90;99.90
13205;DHT22;6667;52.634;9.226;2024-02-26T05:56:42;1.90;99.90
13205;DHT22;6667;52.634;9.226;2024-02-26T05:59:12;1.90;99.90
13205;DHT22;6667;52.634;9.226;2024-02-26T06:01:40;1.90;99.90
13205;DHT22;6667;52.634;9.226;2024-02-26T06:04:08;1.90;99.90
13205;DHT22;6667;52.634;9.226;2024-02-26T06:06:35;2.00;99.90
13205;DHT22;6667;52.634;9.226;2024-02-26T06:09:02;2.00;99.90
13205;DHT22;6667;52.634;9.226;2024-02-26T06:11:30;2.00;99.90
13205;DHT22;6667;52.634;9.226;2024-02-26T06:13:57;2.00;99.90
13205;DHT22;6667;52.634;9.226;2024-02-26T06:16:23;2.00;99.90
13205;DHT22;6667;52.634;9.226;2024-02-26T06:18:50;2.00;99.90
13205;DHT22;6667;52.634;9.226;2024-02-26T06:21:18;2.00;99.90
13205;DHT22;6667;52.634;9.226;2024-02-26T06:23:44;2.10;99.90
13205;DHT22;6667;52.634;9.226;2024-02-26T06:26:11;2.10;99.90
13205;DHT22;6667;52.634;9.226;2024-02-26T06:28:37;2.10;99.90
13205;DHT22;6667;52.634;9.226;2024-02-26T06:31:06;2.20;99.90
13205;DHT22;6667;52.634;9.226;2024-02-26T06:33:32;2.30;99.90
13205;DHT22;6667;52.634;9.226;2024-02-26T06:35:59;2.30;99.90
13205;DHT22;6667;52.634;9.226;2024-02-26T06:38:27;2.30;99.90
13205;DHT22;6667;52.634;9.226;2024-02-26T06:43:21;2.40;99.90
13205;DHT22;6667;52.634;9.226;2024-02-26T06:45:47;2.50;99.90
13205;DHT22;6667;52.634;9.226;2024-02-26T06:48:14;2.50;99.90
13205;DHT22;6667;52.634;9.226;2024-02-26T06:50:40;2.50;99.90
13205;DHT22;6667;52.634;9.226;2024-02-26T06:53:07;2.60;99.90
13205;DHT22;6667;52.634;9.226;2024-02-26T06:55:35;2.60;99.90
13205;DHT22;6667;52.634;9.226;2024-02-26T06:58:05;2.70;99.90
13205;DHT22;6667;52.634;9.226;2024-02-26T07:00:32;2.70;99.90
13205;DHT22;6667;52.634;9.226;2024-02-26T07:02:58;2.70;99.90
13205;DHT22;6667;52.634;9.226;2024-02-26T07:05:25;2.70;99.90
13205;DHT22;6667;52.634;9.226;2024-02-26T07:07:52;2.70;99.90
13205;DHT22;6667;52.634;9.226;2024-02-26T07:10:19;2.80;99.90
13205;DHT22;6667;52.634;9.226;2024-02-26T07:12:47;2.80;99.90
13205;DHT22;6667;52.634;9.226;2024-02-26T07:15:14;2.80;99.90
13205;DHT22;6667;52.634;9.226;2024-02-26T07:17:41;2.80;99.90
13205;DHT22;6667;52.634;9.226;2024-02-26T07:20:12;2.90;99.90
13205;DHT22;6667;52.634;9.226;2024-02-26T07:22:39;3.00;99.90
13205;DHT22;6667;52.634;9.226;2024-02-26T07:25:07;3.00;99.90
13205;DHT22;6667;52.634;9.226;2024-02-26T07:27:38;3.00;99.90
13205;DHT22;6667;52.634;9.226;2024-02-26T07:30:07;3.10;99.90
13205;DHT22;6667;52.634;9.226;2024-02-26T07:32:34;3.00;99.90
13205;DHT22;6667;52.634;9.226;2024-02-26T07:35:01;2.90;99.90
13205;DHT22;6667;52.634;9.226;2024-02-26T07:37:28;3.00;99.90
13205;DHT22;6667;52.634;9.226;2024-02-26T07:39:54;3.00;99.90
13205;DHT22;6667;52.634;9.226;2024-02-26T07:42:21;3.00;99.90
13205;DHT22;6667;52.634;9.226;2024-02-26T07:44:47;3.00;99.90
13205;DHT22;6667;52.634;9.226;2024-02-26T07:47:15;3.00;99.90
13205;DHT22;6667;52.634;9.226;2024-02-26T07:49:42;3.10;99.90
13205;DHT22;6667;52.634;9.226;2024-02-26T07:52:08;3.10;99.90
13205;DHT22;6667;52.634;9.226;2024-02-26T07:54:35;3.10;99.90
13205;DHT22;6667;52.634;9.226;2024-02-26T07:57:02;3.20;99.90
13205;DHT22;6667;52.634;9.226;2024-02-26T07:59:30;3.20;99.90
13205;DHT22;6667;52.634;9.226;2024-02-26T08:01:57;3.20;99.90
13205;DHT22;6667;52.634;9.226;2024-02-26T08:04:25;3.30;99.90
13205;DHT22;6667;52.634;9.226;2024-02-26T08:06:52;3.30;99.90
13205;DHT22;6667;52.634;9.226;2024-02-26T08:09:19;3.30;99.90
13205;DHT22;6667;52.634;9.226;2024-02-26T08:11:45;3.40;99.90
13205;DHT22;6667;52.634;9.226;2024-02-26T08:14:12;3.40;99.90
13205;DHT22;6667;52.634;9.226;2024-02-26T08:16:39;3.50;99.90
13205;DHT22;6667;52.634;9.226;2024-02-26T08:19:05;3.50;99.90
13205;DHT22;6667;52.634;9.226;2024-02-26T08:21:33;3.60;99.90
13205;DHT22;6667;52.634;9.226;2024-02-26T08:24:02;3.60;99.90
13205;DHT22;6667;52.634;9.226;2024-02-26T08:26:28;3.70;99.90
13205;DHT22;6667;52.634;9.226;2024-02-26T08:28:55;3.80;99.90
13205;DHT22;6667;52.634;9.226;2024-02-26T08:31:23;3.80;99.90
13205;DHT22;6667;52.634;9.226;2024-02-26T08:33:49;3.90;99.90
13205;DHT22;6667;52.634;9.226;2024-02-26T08:36:16;3.90;99.90
13205;DHT22;6667;52.634;9.226;2024-02-26T08:38:44;4.00;99.90
13205;DHT22;6667;52.634;9.226;2024-02-26T08:41:10;4.10;99.90
13205;DHT22;6667;52.634;9.226;2024-02-26T08:43:38;4.10;99.90
13205;DHT22;6667;52.634;9.226;2024-02-26T08:46:08;4.20;99.90
13205;DHT22;6667;52.634;9.226;2024-02-26T08:48:35;4.20;99.90
13205;DHT22;6667;52.634;9.226;2024-02-26T08:51:05;4.30;99.90
13205;DHT22;6667;52.634;9.226;2024-02-26T08:53:32;4.40;99.90
13205;DHT22;6667;52.634;9.226;2024-02-26T08:56:00;4.40;99.90
13205;DHT22;6667;52.634;9.226;2024-02-26T08:58:27;4.50;99.90
13205;DHT22;6667;52.634;9.226;2024-02-26T09:00:54;4.50;99.90
13205;DHT22;6667;52.634;9.226;2024-02-26T09:03:20;4.60;99.90
13205;DHT22;6667;52.634;9.226;2024-02-26T09:05:47;4.60;99.90
13205;DHT22;6667;52.634;9.226;2024-02-26T09:08:13;4.60;99.90
13205;DHT22;6667;52.634;9.226;2024-02-26T09:10:41;4.70;99.90
13205;DHT22;6667;52.634;9.226;2024-02-26T09:13:09;4.70;99.90
13205;DHT22;6667;52.634;9.226;2024-02-26T09:15:36;4.80;99.90
13205;DHT22;6667;52.634;9.226;2024-02-26T09:18:02;4.80;99.90
13205;DHT22;6667;52.634;9.226;2024-02-26T09:20:29;4.80;99.90
13205;DHT22;6667;52.634;9.226;2024-02-26T09:22:56;4.90;99.90
13205;DHT22;6667;52.634;9.226;2024-02-26T09:25:22;4.90;99.90
13205;DHT22;6667;52.634;9.226;2024-02-26T09:27:49;5.00;99.90
13205;DHT22;6667;52.634;9.226;2024-02-26T09:30:17;5.00;99.90
13205;DHT22;6667;52.634;9.226;2024-02-26T09:32:46;5.10;99.90
13205;DHT22;6667;52.634;9.226;2024-02-26T09:35:13;5.10;99.90
13205;DHT22;6667;52.634;9.226;2024-02-26T09:37:40;5.10;99.90
13205;DHT22;6667;52.634;9.226;2024-02-26T09:40:08;5.20;99.90
13205;DHT22;6667;52.634;9.226;2024-02-26T09:42:37;5.20;99.90
13205;DHT22;6667;52.634;9.226;2024-02-26T09:45:11;5.30;99.90
13205;DHT22;6667;52.634;9.226;2024-02-26T09:47:40;5.30;99.90
13205;DHT22;6667;52.634;9.226;2024-02-26T09:50:09;5.40;99.90
13205;DHT22;6667;52.634;9.226;2024-02-26T09:52:38;5.40;99.90
13205;DHT22;6667;52.634;9.226;2024-02-26T09:55:07;5.50;99.90
13205;DHT22;6667;52.634;9.226;2024-02-26T09:57:34;5.50;99.90
13205;DHT22;6667;52.634;9.226;2024-02-26T10:00:04;5.60;99.90
13205;DHT22;6667;52.634;9.226;2024-02-26T10:02:33;5.60;99.90
13205;DHT22;6667;52.634;9.226;2024-02-26T10:05:03;5.70;99.90
13205;DHT22;6667;52.634;9.226;2024-02-26T10:07:31;5.80;99.90
13205;DHT22;6667;52.634;9.226;2024-02-26T10:09:58;5.80;99.90
13205;DHT22;6667;52.634;9.226;2024-02-26T10:12:26;5.90;99.90
13205;DHT22;6667;52.634;9.226;2024-02-26T10:14:54;5.90;99.90
13205;DHT22;6667;52.634;9.226;2024-02-26T10:17:21;6.00;99.90
13205;DHT22;6667;52.634;9.226;2024-02-26T10:19:48;6.10;99.90
13205;DHT22;6667;52.634;9.226;2024-02-26T10:22:17;6.10;99.90
13205;DHT22;6667;52.634;9.226;2024-02-26T10:24:47;6.20;99.90
13205;DHT22;6667;52.634;9.226;2024-02-26T10:27:14;6.30;99.90
13205;DHT22;6667;52.634;9.226;2024-02-26T10:29:41;6.40;99.90
13205;DHT22;6667;52.634;9.226;2024-02-26T10:32:08;6.50;99.90
13205;DHT22;6667;52.634;9.226;2024-02-26T10:34:36;6.60;99.90
13205;DHT22;6667;52.634;9.226;2024-02-26T10:37:05;6.80;99.90
13205;DHT22;6667;52.634;9.226;2024-02-26T10:39:33;6.90;99.90
13205;DHT22;6667;52.634;9.226;2024-02-26T10:42:00;7.10;99.90
13205;DHT22;6667;52.634;9.226;2024-02-26T10:44:32;7.20;99.90
13205;DHT22;6667;52.634;9.226;2024-02-26T10:46:58;7.40;99.90
13205;DHT22;6667;52.634;9.226;2024-02-26T10:49:25;7.60;99.90
13205;DHT22;6667;52.634;9.226;2024-02-26T10:51:55;7.60;99.90
13205;DHT22;6667;52.634;9.226;2024-02-26T10:54:25;7.70;99.90
13205;DHT22;6667;52.634;9.226;2024-02-26T10:56:53;7.80;99.90
13205;DHT22;6667;52.634;9.226;2024-02-26T10:59:22;7.90;99.90
13205;DHT22;6667;52.634;9.226;2024-02-26T11:01:49;8.00;99.90
13205;DHT22;6667;52.634;9.226;2024-02-26T11:04:17;8.10;99.90
13205;DHT22;6667;52.634;9.226;2024-02-26T11:06:44;8.20;99.90
13205;DHT22;6667;52.634;9.226;2024-02-26T11:09:13;8.40;99.90
13205;DHT22;6667;52.634;9.226;2024-02-26T11:11:41;8.40;99.90
13205;DHT22;6667;52.634;9.226;2024-02-26T11:14:09;8.50;99.90
13205;DHT22;6667;52.634;9.226;2024-02-26T11:16:39;8.60;99.90
13205;DHT22;6667;52.634;9.226;2024-02-26T11:19:06;8.70;99.90
13205;DHT22;6667;52.634;9.226;2024-02-26T11:21:35;8.80;99.90
13205;DHT22;6667;52.634;9.226;2024-02-26T11:24:07;8.90;99.90
13205;DHT22;6667;52.634;9.226;2024-02-26T11:26:37;9.00;99.90
13205;DHT22;6667;52.634;9.226;2024-02-26T11:29:09;9.20;99.90
13205;DHT22;6667;52.634;9.226;2024-02-26T11:31:37;9.30;99.90
13205;DHT22;6667;52.634;9.226;2024-02-26T11:34:04;9.40;99.90
13205;DHT22;6667;52.634;9.226;2024-02-26T11:36:32;9.40;99.90
13205;DHT22;6667;52.634;9.226;2024-02-26T11:38:59;9.40;99.90
13205;DHT22;6667;52.634;9.226;2024-02-26T11:41:26;9.50;99.90
13205;DHT22;6667;52.634;9.226;2024-02-26T11:43:57;9.70;99.90
13205;DHT22;6667;52.634;9.226;2024-02-26T11:46:28;9.70;99.90
13205;DHT22;6667;52.634;9.226;2024-02-26T11:48:58;9.60;99.90
13205;DHT22;6667;52.634;9.226;2024-02-26T11:51:26;9.80;99.90
13205;DHT22;6667;52.634;9.226;2024-02-26T11:53:53;9.90;99.90
13205;DHT22;6667;52.634;9.226;2024-02-26T11:56:23;9.90;99.90
13205;DHT22;6667;52.634;9.226;2024-02-26T11:58:56;10.20;99.90
13205;DHT22;6667;52.634;9.226;2024-02-26T12:01:37;10.30;99.90
13205;DHT22;6667;52.634;9.226;2024-02-26T12:04:05;10.30;99.90
13205;DHT22;6667;52.634;9.226;2024-02-26T12:06:44;10.30;99.90
13205;DHT22;6667;52.634;9.226;2024-02-26T12:09:11;10.40;99.90
13205;DHT22;6667;52.634;9.226;2024-02-26T12:11:39;10.30;99.90
13205;DHT22;6667;52.634;9.226;2024-02-26T12:14:07;10.50;99.90
13205;DHT22;6667;52.634;9.226;2024-02-26T12:16:36;10.40;99.90
13205;DHT22;6667;52.634;9.226;2024-02-26T12:19:04;10.40;99.90
13205;DHT22;6667;52.634;9.226;2024-02-26T12:21:33;10.50;99.90
13205;DHT22;6667;52.634;9.226;2024-02-26T12:24:08;10.60;99.90
13205;DHT22;6667;52.634;9.226;2024-02-26T12:26:36;10.50;99.90
13205;DHT22;6667;52.634;9.226;2024-02-26T12:29:02;10.50;99.90
13205;DHT22;6667;52.634;9.226;2024-02-26T12:31:29;10.60;99.90
13205;DHT22;6667;52.634;9.226;2024-02-26T12:33:58;10.50;99.90
13205;DHT22;6667;52.634;9.226;2024-02-26T12:36:25;10.40;99.90
13205;DHT22;6667;52.634;9.226;2024-02-26T12:38:52;10.40;99.90
13205;DHT22;6667;52.634;9.226;2024-02-26T12:41:19;10.40;99.90
13205;DHT22;6667;52.634;9.226;2024-02-26T12:43:46;10.40;99.90
13205;DHT22;6667;52.634;9.226;2024-02-26T12:46:12;10.40;99.90
13205;DHT22;6667;52.634;9.226;2024-02-26T12:48:43;10.30;99.90
13205;DHT22;6667;52.634;9.226;2024-02-26T12:51:12;10.20;99.90
13205;DHT22;6667;52.634;9.226;2024-02-26T12:53:38;10.30;99.90
13205;DHT22;6667;52.634;9.226;2024-02-26T12:56:06;10.30;99.90
13205;DHT22;6667;52.634;9.226;2024-02-26T12:58:34;10.20;99.90
13205;DHT22;6667;52.634;9.226;2024-02-26T13:01:03;10.20;99.90
13205;DHT22;6667;52.634;9.226;2024-02-26T13:03:31;10.20;99.90
13205;DHT22;6667;52.634;9.226;2024-02-26T13:05:58;10.30;99.90
13205;DHT22;6667;52.634;9.226;2024-02-26T13:08:26;10.20;99.90
13205;DHT22;6667;52.634;9.226;2024-02-26T13:10:52;10.30;99.90
13205;DHT22;6667;52.634;9.226;2024-02-26T13:13:19;10.30;99.90
13205;DHT22;6667;52.634;9.226;2024-02-26T13:15:46;10.20;99.90
13205;DHT22;6667;52.634;9.226;2024-02-26T13:18:14;10.30;99.90
13205;DHT22;6667;52.634;9.226;2024-02-26T13:20:41;10.50;99.90
13205;DHT22;6667;52.634;9.226;2024-02-26T13:23:11;10.40;99.90
13205;DHT22;6667;52.634;9.226;2024-02-26T13:25:39;10.20;99.90
13205;DHT22;6667;52.634;9.226;2024-02-26T13:28:07;10.20;99.90
13205;DHT22;6667;52.634;9.226;2024-02-26T13:30:34;10.20;99.90
13205;DHT22;6667;52.634;9.226;2024-02-26T13:33:07;10.20;99.90
13205;DHT22;6667;52.634;9.226;2024-02-26T13:35:34;10.30;99.90
13205;DHT22;6667;52.634;9.226;2024-02-26T13:38:02;10.20;99.90
13205;DHT22;6667;52.634;9.226;2024-02-26T13:40:29;10.20;99.90
13205;DHT22;6667;52.634;9.226;2024-02-26T13:42:57;10.20;99.90
13205;DHT22;6667;52.634;9.226;2024-02-26T13:45:23;10.30;99.90
13205;DHT22;6667;52.634;9.226;2024-02-26T13:47:50;10.30;99.90
13205;DHT22;6667;52.634;9.226;2024-02-26T13:50:17;10.40;99.90
13205;DHT22;6667;52.634;9.226;2024-02-26T13:52:46;10.40;99.90
13205;DHT22;6667;52.634;9.226;2024-02-26T13:55:13;10.30;99.90
13205;DHT22;6667;52.634;9.226;2024-02-26T13:57:40;10.30;99.90
13205;DHT22;6667;52.634;9.226;2024-02-26T14:00:10;10.30;99.90
13205;DHT22;6667;52.634;9.226;2024-02-26T14:02:36;10.30;99.90
13205;DHT22;6667;52.634;9.226;2024-02-26T14:05:03;10.30;99.90
13205;DHT22;6667;52.634;9.226;2024-02-26T14:07:30;10.30;99.90
13205;DHT22;6667;52.634;9.226;2024-02-26T14:09:58;10.30;99.90
13205;DHT22;6667;52.634;9.226;2024-02-26T14:12:24;10.20;99.90
13205;DHT22;6667;52.634;9.226;2024-02-26T14:14:51;10.20;99.90
13205;DHT22;6667;52.634;9.226;2024-02-26T14:17:20;10.20;99.90
13205;DHT22;6667;52.634;9.226;2024-02-26T14:19:47;10.20;99.90
13205;DHT22;6667;52.634;9.226;2024-02-26T14:22:15;10.10;99.90
13205;DHT22;6667;52.634;9.226;2024-02-26T14:24:42;10.10;99.90
13205;DHT22;6667;52.634;9.226;2024-02-26T14:27:10;10.00;99.90
13205;DHT22;6667;52.634;9.226;2024-02-26T14:29:39;10.00;99.90
13205;DHT22;6667;52.634;9.226;2024-02-26T14:32:07;10.10;99.90
13205;DHT22;6667;52.634;9.226;2024-02-26T14:34:35;10.00;99.90
13205;DHT22;6667;52.634;9.226;2024-02-26T14:37:02;10.00;99.90
13205;DHT22;6667;52.634;9.226;2024-02-26T14:39:29;10.00;99.90
13205;DHT22;6667;52.634;9.226;2024-02-26T14:41:57;10.00;99.90
13205;DHT22;6667;52.634;9.226;2024-02-26T14:44:24;10.00;99.90
13205;DHT22;6667;52.634;9.226;2024-02-26T14:46:50;10.00;99.90
13205;DHT22;6667;52.634;9.226;2024-02-26T14:49:17;10.00;99.90
13205;DHT22;6667;52.634;9.226;2024-02-26T14:51:45;10.00;99.90
13205;DHT22;6667;52.634;9.226;2024-02-26T14:54:12;10.10;99.90
13205;DHT22;6667;52.634;9.226;2024-02-26T14:56:39;10.20;99.90
13205;DHT22;6667;52.634;9.226;2024-02-26T14:59:06;10.10;99.90
13205;DHT22;6667;52.634;9.226;2024-02-26T15:01:33;10.10;99.90
13205;DHT22;6667;52.634;9.226;2024-02-26T15:04:00;10.00;99.90
13205;DHT22;6667;52.634;9.226;2024-02-26T15:06:27;10.00;99.90
13205;DHT22;6667;52.634;9.226;2024-02-26T15:08:55;10.00;99.90
13205;DHT22;6667;52.634;9.226;2024-02-26T15:11:22;10.00;99.90
13205;DHT22;6667;52.634;9.226;2024-02-26T15:13:49;10.00;99.90
13205;DHT22;6667;52.634;9.226;2024-02-26T15:16:18;10.00;99.90
13205;DHT22;6667;52.634;9.226;2024-02-26T15:18:46;10.00;99.90
13205;DHT22;6667;52.634;9.226;2024-02-26T15:21:12;10.00;99.90
13205;DHT22;6667;52.634;9.226;2024-02-26T15:23:42;9.90;99.90
13205;DHT22;6667;52.634;9.226;2024-02-26T15:26:10;9.90;99.90
13205;DHT22;6667;52.634;9.226;2024-02-26T15:28:37;9.90;99.90
13205;DHT22;6667;52.634;9.226;2024-02-26T15:31:04;9.90;99.90
13205;DHT22;6667;52.634;9.226;2024-02-26T15:33:31;9.80;99.90
13205;DHT22;6667;52.634;9.226;2024-02-26T15:35:57;9.80;99.90
13205;DHT22;6667;52.634;9.226;2024-02-26T15:38:24;9.70;99.90
13205;DHT22;6667;52.634;9.226;2024-02-26T15:40:52;9.70;99.90
13205;DHT22;6667;52.634;9.226;2024-02-26T15:43:20;9.60;99.90
13205;DHT22;6667;52.634;9.226;2024-02-26T15:45:48;9.60;99.90
13205;DHT22;6667;52.634;9.226;2024-02-26T15:48:14;9.50;99.90
13205;DHT22;6667;52.634;9.226;2024-02-26T15:50:42;9.50;99.90
13205;DHT22;6667;52.634;9.226;2024-02-26T15:53:09;9.50;99.90
13205;DHT22;6667;52.634;9.226;2024-02-26T15:55:35;9.40;99.90
13205;DHT22;6667;52.634;9.226;2024-02-26T15:58:02;9.40;99.90
13205;DHT22;6667;52.634;9.226;2024-02-26T16:00:30;9.30;99.90